Weather History for Bentonville, AR

Change the Weather History Date:

Thursday, March 7, 2013

  Actual Average Record
Temperature  
Mean Temperature 48 °F -  
Max Temperature 62 °F 57 °F 82 °F (1974)
Min Temperature 35 °F 31 °F 6 °F (1989)
Degree Days  
Heating Degree Days 16    
Moisture  
Dew Point 25 °F    
Average Humidity 41    
Maximum Humidity 61    
Minimum Humidity 20    
Precipitation  
Precipitation 0.00 in - - ()
Sea Level Pressure  
Sea Level Pressure 30.20 in    
Wind  
Wind Speed 8 mph (SE)    
Max Wind Speed 13 mph    
Max Gust Speed 18 mph    
Visibility 10 miles    
Events      
Averages and records for this station are not official NWS values.
T = Trace of Precipitation, MM = Missing Value Source: NWS Daily Summary

Daily Weather History Graph

Daily Weather History Graph

Search for Another Location

Airport:

Trip Planner

Search our weather history database for the weather conditions in past years. The results will help you decide how hot, cold, wet, or windy it might be!

Date:

Astronomy

Mar. 07, 2013 Rise Set
Actual Time 6:38 AM CST 6:17 PM CST
Civil Twilight 6:13 AM CST 6:43 PM CST
Nautical Twilight 5:43 AM CST 7:12 PM CST
Astronomical Twilight 5:13 AM CST 7:42 PM CST
Moon 3:32 AM CST (3/7) 2:11 PM CST (3/7)
Length of Visible Light 12h 30m
Length of Day
11h 38m
Waning Crescent, 20% of the Moon is Illuminated
Mar 7
Waning Crescent
Mar 11
New
Mar 19
First Quarter
Mar 27
Full
Apr 2
Last Quarter

Hourly Weather History & Observations

Time (CST) Temp. Windchill Dew Point Humidity Pressure Visibility Wind Dir Wind Speed Gust Speed Precip Events Conditions
12:15 AM 39.2 °F 34.2 °F 24.8 °F 56% 30.22 in 10.0 mi ENE 6.9 mph - N/A   Clear
12:35 AM 39.2 °F 35.0 °F 26.6 °F 61% 30.22 in 10.0 mi East 5.8 mph - N/A   Clear
12:55 AM 39.2 °F 35.9 °F 24.8 °F 56% 30.22 in 10.0 mi East 4.6 mph - N/A   Clear
1:15 AM 39.2 °F 35.0 °F 24.8 °F 56% 30.23 in 10.0 mi East 5.8 mph - N/A   Clear
1:35 AM 39.2 °F 35.0 °F 24.8 °F 56% 30.23 in 10.0 mi ESE 5.8 mph - N/A   Clear
1:55 AM 39.2 °F 35.0 °F 24.8 °F 56% 30.23 in 10.0 mi ESE 5.8 mph - N/A   Clear
2:15 AM 39.2 °F 34.2 °F 23.0 °F 52% 30.23 in 10.0 mi ESE 6.9 mph - N/A   Partly Cloudy
2:35 AM 39.2 °F 33.0 °F 23.0 °F 52% 30.22 in 10.0 mi ESE 9.2 mph - N/A   Partly Cloudy
2:55 AM 39.2 °F 34.2 °F 21.2 °F 49% 30.23 in 10.0 mi SE 6.9 mph - N/A   Partly Cloudy
3:15 AM 39.2 °F 34.2 °F 23.0 °F 52% 30.22 in 10.0 mi SE 6.9 mph - N/A   Scattered Clouds
3:35 AM 39.2 °F 35.0 °F 23.0 °F 52% 30.22 in 10.0 mi SE 5.8 mph - N/A   Mostly Cloudy
3:55 AM 39.2 °F 34.2 °F 23.0 °F 52% 30.23 in 10.0 mi ESE 6.9 mph - N/A   Mostly Cloudy
4:15 AM 39.2 °F 35.0 °F 23.0 °F 52% 30.23 in 10.0 mi SE 5.8 mph - N/A   Scattered Clouds
4:35 AM 39.2 °F 35.0 °F 23.0 °F 52% 30.23 in 10.0 mi SE 5.8 mph - N/A   Partly Cloudy
4:55 AM 37.4 °F 32.1 °F 23.0 °F 56% 30.23 in 10.0 mi SE 6.9 mph - N/A   Partly Cloudy
5:15 AM 37.4 °F 33.8 °F 23.0 °F 56% 30.23 in 10.0 mi ESE 4.6 mph - N/A   Partly Cloudy
5:35 AM 37.4 °F 32.1 °F 23.0 °F 56% 30.22 in 10.0 mi ESE 6.9 mph - N/A   Clear
5:55 AM 35.6 °F 29.2 °F 23.0 °F 60% 30.22 in 10.0 mi SE 8.1 mph - N/A   Partly Cloudy
6:15 AM 35.6 °F 29.2 °F 23.0 °F 60% 30.22 in 10.0 mi SE 8.1 mph - N/A   Clear
6:35 AM 35.6 °F 29.2 °F 23.0 °F 60% 30.22 in 10.0 mi SE 8.1 mph - N/A   Clear
6:55 AM 35.6 °F 29.9 °F 23.0 °F 60% 30.22 in 10.0 mi SE 6.9 mph - N/A   Clear
7:15 AM 37.4 °F 31.4 °F 23.0 °F 56% 30.22 in 10.0 mi SE 8.1 mph - N/A   Clear
7:35 AM 39.2 °F 33.0 °F 24.8 °F 56% 30.23 in 10.0 mi SE 9.2 mph - N/A   Clear
7:55 AM 39.2 °F 33.6 °F 24.8 °F 56% 30.24 in 10.0 mi SE 8.1 mph - N/A   Clear
8:15 AM 42.8 °F 37.5 °F 24.8 °F 49% 30.24 in 10.0 mi SE 9.2 mph - N/A   Clear
8:35 AM 44.6 °F 38.8 °F 24.8 °F 46% 30.24 in 10.0 mi SSE 11.5 mph - N/A   Clear
8:55 AM 46.4 °F 41.5 °F 24.8 °F 43% 30.24 in 10.0 mi SSE 10.4 mph - N/A   Clear
9:15 AM 48.2 °F - 24.8 °F 40% 30.25 in 10.0 mi South 8.1 mph - N/A   Clear
9:35 AM 50.0 °F - 24.8 °F 37% 30.25 in 10.0 mi South 10.4 mph - N/A   Clear
9:55 AM 51.8 °F - 24.8 °F 35% 30.25 in 10.0 mi South 9.2 mph - N/A   Clear
10:15 AM 53.6 °F - 24.8 °F 33% 30.26 in 10.0 mi South 11.5 mph - N/A   Clear
10:35 AM 53.6 °F - 24.8 °F 33% 30.25 in 10.0 mi South 11.5 mph - N/A   Clear
10:55 AM 55.4 °F - 24.8 °F 31% 30.24 in 10.0 mi SSE 12.7 mph - N/A   Clear
11:15 AM 55.4 °F - 24.8 °F 31% 30.24 in 10.0 mi South 9.2 mph - N/A   Clear
11:35 AM 57.2 °F - 24.8 °F 29% 30.24 in 10.0 mi SSE 9.2 mph - N/A   Clear
11:55 AM 57.2 °F - 24.8 °F 29% 30.24 in 10.0 mi SSW 11.5 mph - N/A   Clear
12:15 PM 59.0 °F - 24.8 °F 27% 30.23 in 10.0 mi SSW 6.9 mph - N/A   Clear
12:35 PM 59.0 °F - 23.0 °F 25% 30.22 in 10.0 mi South 9.2 mph - N/A   Clear
12:55 PM 60.8 °F - 23.0 °F 23% 30.21 in 10.0 mi SSE 10.4 mph 18.4 mph N/A   Clear
1:15 PM 60.8 °F - 24.8 °F 25% 30.20 in 10.0 mi South 6.9 mph - N/A   Clear
1:35 PM 62.6 °F - 24.8 °F 24% 30.19 in 10.0 mi South 10.4 mph 17.3 mph N/A   Clear
1:55 PM 62.6 °F - 24.8 °F 24% 30.18 in 10.0 mi South 10.4 mph 16.1 mph N/A   Clear
2:15 PM 62.6 °F - 24.8 °F 24% 30.17 in 10.0 mi SSE 8.1 mph 17.3 mph N/A   Clear
2:35 PM 62.6 °F - 24.8 °F 24% 30.16 in 10.0 mi SSE 12.7 mph - N/A   Clear
2:55 PM 62.6 °F - 24.8 °F 24% 30.16 in 10.0 mi South 12.7 mph 16.1 mph N/A   Clear
3:15 PM 62.6 °F - 23.0 °F 22% 30.16 in 10.0 mi South 10.4 mph - N/A   Clear
3:35 PM 62.6 °F - 23.0 °F 22% 30.15 in 10.0 mi SSW 9.2 mph - N/A   Clear
3:55 PM 62.6 °F - 24.8 °F 24% 30.15 in 10.0 mi South 8.1 mph - N/A   Clear
4:15 PM 62.6 °F - 23.0 °F 22% 30.14 in 10.0 mi South 9.2 mph - N/A   Clear
4:35 PM 62.6 °F - 21.2 °F 20% 30.14 in 10.0 mi South 10.4 mph - N/A   Clear
4:55 PM 62.6 °F - 23.0 °F 22% 30.14 in 10.0 mi South 6.9 mph - N/A   Clear
5:15 PM 60.8 °F - 23.0 °F 23% 30.13 in 10.0 mi SSE 11.5 mph - N/A   Clear
5:35 PM 60.8 °F - 23.0 °F 23% 30.14 in 10.0 mi South 8.1 mph - N/A   Clear
5:55 PM 57.2 °F - 24.8 °F 29% 30.13 in 10.0 mi South 8.1 mph - N/A   Clear
6:15 PM 55.4 °F - 24.8 °F 31% 30.13 in 10.0 mi South 8.1 mph - N/A   Clear
6:35 PM 53.6 °F - 24.8 °F 33% 30.14 in 10.0 mi SSE 9.2 mph - N/A   Clear
6:55 PM 53.6 °F - 24.8 °F 33% 30.14 in 10.0 mi SSE 9.2 mph - N/A   Clear
7:15 PM 51.8 °F - 24.8 °F 35% 30.14 in 10.0 mi SSE 8.1 mph - N/A   Clear
7:35 PM 51.8 °F - 26.6 °F 38% 30.15 in 10.0 mi SSE 9.2 mph - N/A   Clear
7:55 PM 51.8 °F - 26.6 °F 38% 30.15 in 10.0 mi SE 8.1 mph - N/A   Clear
8:15 PM 48.2 °F - 26.6 °F 43% 30.14 in 10.0 mi SSE 6.9 mph - N/A   Clear
9:15 PM 48.2 °F - 28.4 °F 46% 30.15 in 10.0 mi SSE 9.2 mph - N/A   Clear
9:35 PM 48.2 °F - 28.4 °F 46% 30.15 in 10.0 mi SE 8.1 mph - N/A   Clear
9:55 PM 46.4 °F 42.9 °F 28.4 °F 50% 30.17 in 10.0 mi SE 6.9 mph - N/A   Clear
10:15 PM 46.4 °F 42.4 °F 28.4 °F 50% 30.17 in 10.0 mi SE 8.1 mph - N/A   Clear
10:35 PM 46.4 °F 42.4 °F 28.4 °F 50% 30.18 in 10.0 mi SE 8.1 mph - N/A   Clear
10:55 PM 46.4 °F 42.4 °F 28.4 °F 50% 30.18 in 10.0 mi ESE 8.1 mph - N/A   Clear
11:15 PM 46.4 °F 42.4 °F 28.4 °F 50% 30.19 in 10.0 mi SE 8.1 mph - N/A   Clear
11:35 PM 46.4 °F 41.5 °F 28.4 °F 50% 30.18 in 10.0 mi ESE 10.4 mph - N/A   Clear
11:55 PM 46.4 °F 41.9 °F 28.4 °F 50% 30.18 in 10.0 mi ESE 9.2 mph - N/A   Clear